createdAt,value
2022-10-23T00:00:19.882Z,1007.3
2022-10-23T00:05:19.999Z,1007.2
2022-10-23T00:10:20.240Z,1007.2
2022-10-23T00:15:20.468Z,1007.1
2022-10-23T00:20:20.673Z,1006.9
2022-10-23T00:30:21.118Z,1006.7
2022-10-23T00:35:21.367Z,1006.6
2022-10-23T00:40:21.595Z,1006.6
2022-10-23T00:45:21.905Z,1006.5
2022-10-23T00:50:22.124Z,1006.4
2022-10-23T00:55:24.344Z,1006.2
2022-10-23T01:00:22.572Z,1006.3
2022-10-23T01:05:22.796Z,1006.2
2022-10-23T01:10:23.010Z,1006.0
2022-10-23T01:15:23.266Z,1005.8
2022-10-23T01:20:23.498Z,1005.9
2022-10-23T01:25:23.741Z,1006.1
2022-10-23T01:30:24.002Z,1005.7
2022-10-23T01:35:24.278Z,1005.3
2022-10-23T01:40:24.478Z,1005.6
2022-10-23T01:45:24.975Z,1005.4
2022-10-23T01:50:24.952Z,1005.3
2022-10-23T01:55:27.822Z,1005.3
2022-10-23T02:00:25.894Z,1005.1
2022-10-23T02:10:25.950Z,1004.8
2022-10-23T02:15:26.196Z,1004.6
2022-10-23T02:20:26.462Z,1004.6
2022-10-23T02:30:26.943Z,1004.3
2022-10-23T02:35:27.211Z,1004.2
2022-10-23T02:40:27.486Z,1004.0
2022-10-23T02:55:28.270Z,1003.6
2022-10-23T03:00:28.550Z,1003.4
2022-10-23T03:10:29.084Z,1003.0
2022-10-23T03:15:29.434Z,1002.8
2022-10-23T03:20:29.648Z,1002.8
2022-10-23T03:25:29.922Z,1002.7
2022-10-23T03:30:30.209Z,1002.6
2022-10-23T03:35:30.513Z,1002.8
2022-10-23T03:40:30.824Z,1003.4
2022-10-23T03:45:31.095Z,1003.5
2022-10-23T03:50:31.345Z,1003.1
2022-10-23T03:55:31.571Z,1003.1
2022-10-23T04:00:31.927Z,1002.7
2022-10-23T04:05:32.115Z,1002.6
2022-10-23T04:10:32.294Z,1002.5
2022-10-23T04:15:36.484Z,1002.4
2022-10-23T04:20:32.708Z,1002.1
2022-10-23T04:30:33.164Z,1002.3
2022-10-23T04:35:33.388Z,1002.1
2022-10-23T04:40:33.523Z,1002.3
2022-10-23T04:45:33.762Z,1002.3
2022-10-23T04:50:33.977Z,1002.3
2022-10-23T04:55:34.163Z,1002.3
2022-10-23T05:00:34.466Z,1002.0
2022-10-23T05:05:34.576Z,1002.0
2022-10-23T05:10:34.807Z,1002.0
2022-10-23T05:15:35.090Z,1002.0
2022-10-23T05:20:37.247Z,1002.0
2022-10-23T05:25:35.473Z,1002.0
2022-10-23T05:30:35.691Z,1002.0
2022-10-23T05:35:38.492Z,1001.7
2022-10-23T05:40:36.239Z,1001.5
2022-10-23T05:45:36.491Z,1001.5
2022-10-23T05:50:36.677Z,1001.6
2022-10-23T05:55:37.118Z,1001.3
2022-10-23T06:00:37.077Z,1001.5
2022-10-23T06:05:37.298Z,1001.7
2022-10-23T06:10:37.528Z,1001.6
2022-10-23T06:15:37.760Z,1001.9
2022-10-23T06:20:37.980Z,1001.9
2022-10-23T06:25:38.264Z,1001.7
2022-10-23T06:30:42.947Z,1001.5
2022-10-23T06:35:38.666Z,1001.3
2022-10-23T06:40:38.875Z,1001.5
2022-10-23T06:45:41.144Z,1001.9
2022-10-23T06:50:39.368Z,1002.0
2022-10-23T06:55:39.565Z,1002.1
2022-10-23T07:00:39.806Z,1002.0
2022-10-23T07:05:40.003Z,1001.8
2022-10-23T07:10:40.213Z,1001.6
2022-10-23T07:15:40.396Z,1001.3
2022-10-23T07:25:40.815Z,1001.1
2022-10-23T07:30:41.028Z,1001.1
2022-10-23T07:35:41.245Z,1001.1
2022-10-23T07:40:41.433Z,1001.1
2022-10-23T07:45:41.631Z,1000.7
2022-10-23T07:50:41.840Z,1001.4
2022-10-23T07:55:42.034Z,1001.8
2022-10-23T08:05:42.446Z,1001.7
2022-10-23T08:10:42.691Z,1001.3
2022-10-23T08:15:42.895Z,1001.1
2022-10-23T08:20:43.092Z,1001.1
2022-10-23T08:25:45.810Z,1001.1
2022-10-23T08:30:43.501Z,1001.0
2022-10-23T08:35:43.837Z,1000.4
2022-10-23T08:40:43.996Z,1000.3
2022-10-23T08:45:46.236Z,1000.3
2022-10-23T08:55:44.718Z,1000.2
2022-10-23T09:00:45.176Z,1000.2
2022-10-23T09:05:45.238Z,1000.4
2022-10-23T09:15:45.759Z,1000.4
2022-10-23T09:20:45.877Z,1000.3
2022-10-23T09:25:46.114Z,1000.4
2022-10-23T09:35:46.583Z,1000.2
2022-10-23T09:40:46.862Z,1000.3
2022-10-23T09:45:47.066Z,1000.4
2022-10-23T09:50:47.312Z,1000.4
2022-10-23T10:05:48.039Z,1000.6
2022-10-23T10:10:48.303Z,1000.7
2022-10-23T10:15:48.538Z,1000.7
2022-10-23T10:20:48.766Z,1000.7
2022-10-23T10:25:52.113Z,1000.7
2022-10-23T10:30:49.282Z,1000.6
2022-10-23T10:45:52.209Z,1000.4
2022-10-23T10:50:50.517Z,1000.4
2022-10-23T10:55:50.827Z,1000.3
2022-10-23T11:00:51.235Z,1000.3
2022-10-23T11:05:51.456Z,1000.4
2022-10-23T11:10:51.713Z,1000.4
2022-10-23T11:20:52.321Z,1000.1
2022-10-23T11:25:52.664Z,1000.0
2022-10-23T11:30:52.911Z,1000.0
2022-10-23T11:35:53.247Z,1000.0
2022-10-23T11:40:53.551Z,999.8
2022-10-23T11:45:53.898Z,999.8
2022-10-23T11:50:54.225Z,999.8
2022-10-23T11:55:54.521Z,999.6
2022-10-23T12:00:54.824Z,999.4
2022-10-23T12:10:56.876Z,999.3
2022-10-23T12:16:01.122Z,999.1
2022-10-23T12:20:57.984Z,999.0
2022-10-23T12:25:59.833Z,999.1
2022-10-23T12:30:57.402Z,999.0
2022-10-23T12:41:09.467Z,998.5
2022-10-23T12:46:17.688Z,998.4
2022-10-23T12:51:06.194Z,998.4
2022-10-23T12:56:02.416Z,998.2
2022-10-23T13:11:01.111Z,998.1
2022-10-23T13:16:00.400Z,997.9
2022-10-23T13:21:15.588Z,997.7
2022-10-23T13:26:00.500Z,997.6
2022-10-23T13:36:01.178Z,997.3
2022-10-23T13:41:01.537Z,997.3
2022-10-23T13:46:01.943Z,997.1
2022-10-23T13:51:04.252Z,996.9
2022-10-23T13:56:06.602Z,996.8
2022-10-23T14:01:03.169Z,996.6
2022-10-23T14:06:03.323Z,996.5
2022-10-23T14:11:03.778Z,996.4
2022-10-23T14:16:08.011Z,996.6
2022-10-23T14:26:04.606Z,996.6
2022-10-23T14:31:06.908Z,996.5
2022-10-23T14:36:05.175Z,996.3
2022-10-23T14:41:07.921Z,995.9
2022-10-23T14:46:05.665Z,995.4
2022-10-23T14:51:06.007Z,995.3
2022-10-23T14:56:06.214Z,996.3
2022-10-23T15:01:06.601Z,996.0
2022-10-23T15:06:06.706Z,996.5
2022-10-23T15:11:08.998Z,996.6
2022-10-23T15:16:07.080Z,996.6
2022-10-23T15:21:07.263Z,996.5
2022-10-23T15:26:09.420Z,996.6
2022-10-23T15:31:10.054Z,996.4
2022-10-23T15:36:07.732Z,996.3
2022-10-23T15:41:07.842Z,996.1
2022-10-23T15:46:07.962Z,996.1
2022-10-23T15:51:08.065Z,996.1
2022-10-23T15:56:08.205Z,996.0
2022-10-23T16:01:08.401Z,996.0
2022-10-23T16:06:08.387Z,996.0
2022-10-23T16:11:08.511Z,996.0
2022-10-23T16:16:08.641Z,996.0
2022-10-23T16:21:08.752Z,995.9
2022-10-23T16:26:08.847Z,995.8
2022-10-23T16:31:09.712Z,995.8
2022-10-23T16:36:09.038Z,995.8
2022-10-23T16:46:09.269Z,995.9
2022-10-23T16:51:09.526Z,995.9
2022-10-23T16:56:09.514Z,996.0
2022-10-23T17:01:09.756Z,996.1
2022-10-23T17:06:11.254Z,996.1
2022-10-23T17:11:09.947Z,996.1
2022-10-23T17:16:10.007Z,996.2
2022-10-23T17:21:10.146Z,996.3
2022-10-23T17:26:10.273Z,996.2
2022-10-23T17:31:12.470Z,996.3
2022-10-23T17:36:10.465Z,996.2
2022-10-23T17:41:10.570Z,996.2
2022-10-23T17:46:10.743Z,996.2
2022-10-23T17:51:10.803Z,996.2
2022-10-23T17:56:12.913Z,996.2
2022-10-23T18:01:11.129Z,996.2
2022-10-23T18:06:13.151Z,996.1
2022-10-23T18:11:11.335Z,996.1
2022-10-23T18:16:11.402Z,996.1
2022-10-23T18:21:11.538Z,996.1
2022-10-23T18:26:11.652Z,996.1
2022-10-23T18:31:11.772Z,996.0
2022-10-23T18:36:11.897Z,995.9
2022-10-23T18:41:12.024Z,995.9
2022-10-23T18:46:11.945Z,995.7
2022-10-23T18:51:14.906Z,995.6
2022-10-23T18:56:12.180Z,995.6
2022-10-23T19:01:12.629Z,995.4
2022-10-23T19:06:12.430Z,995.4
2022-10-23T19:16:12.717Z,995.3
2022-10-23T19:21:12.995Z,995.2
2022-10-23T19:26:12.948Z,995.0
2022-10-23T19:31:13.276Z,995.0
2022-10-23T19:36:14.460Z,994.9
2022-10-23T19:41:13.489Z,994.8
2022-10-23T19:46:13.481Z,994.7
2022-10-23T19:51:13.788Z,994.7
2022-10-23T19:56:13.724Z,994.6
2022-10-23T20:01:14.187Z,994.5
2022-10-23T20:06:13.988Z,994.4
2022-10-23T20:11:16.561Z,994.6
2022-10-23T20:16:14.226Z,994.6
2022-10-23T20:21:14.523Z,994.4
2022-10-23T20:26:14.504Z,994.3
2022-10-23T20:36:14.754Z,994.2
2022-10-23T20:41:15.018Z,994.1
2022-10-23T20:46:14.986Z,994.2
2022-10-23T20:51:15.309Z,994.1
2022-10-23T20:56:15.242Z,994.2
2022-10-23T21:01:15.619Z,994.1
2022-10-23T21:06:15.454Z,994.0
2022-10-23T21:11:15.713Z,993.9
2022-10-23T21:16:15.658Z,994.0
2022-10-23T21:21:15.943Z,993.9
2022-10-23T21:26:15.947Z,993.8
2022-10-23T21:31:18.222Z,993.7
2022-10-23T21:36:16.321Z,993.6
2022-10-23T21:46:16.425Z,993.6
2022-10-23T21:51:18.711Z,993.6
2022-10-23T21:56:16.660Z,993.7
2022-10-23T22:01:17.141Z,993.4
2022-10-23T22:06:16.921Z,993.4
2022-10-23T22:11:17.263Z,993.3
2022-10-23T22:16:17.180Z,993.2
2022-10-23T22:21:17.481Z,993.1
2022-10-23T22:26:17.415Z,992.9
2022-10-23T22:31:17.754Z,992.8
2022-10-23T22:36:17.907Z,992.7
2022-10-23T22:41:18.072Z,992.4
2022-10-23T22:46:18.208Z,992.2
2022-10-23T22:51:18.358Z,991.9
2022-10-23T22:56:18.524Z,991.7
2022-10-23T23:06:19.139Z,991.6
2022-10-23T23:11:18.893Z,991.7
2022-10-23T23:16:19.032Z,991.8
2022-10-23T23:21:19.173Z,992.1
2022-10-23T23:31:19.421Z,992.7
2022-10-23T23:36:19.570Z,993.0
2022-10-23T23:41:21.719Z,993.2
2022-10-23T23:46:19.977Z,993.4
2022-10-23T23:51:20.011Z,993.6
2022-10-23T23:56:20.122Z,993.8
